Main page
METAR-TAF:

METAR-TAF

Airports :

Kunming Changshui International Airport

Kunming, China

latitude: 25-01N, longitude: 102-41E, elevation: 1892 m

Current weather observation

The report was made 25 minutes ago, at 22:00 UTC
Wind 4 kt from the East
Temperature 13°C
Humidity 100%
Pressure 1018 hPa
Visibility 10 km or more
no clouds below 1500 m and no cumulonimbus

METAR: ZPPP 182200Z 10002MPS CAVOK 13/13 Q1018 NOSIG

Time: 06:25 (22:25 UTC)

Forecast

The report was made 9 hours and 19 minutes ago, at 13:06 UTC
Forecast valid from 18 at 18 UTC to 19 at 18 UTC
Wind 8 kt from the East/Northeast
Visibility 10 km or more
Scattered clouds at a height of 2600 ft

TAF: ZPPP 181306Z 1818/1918 07004MPS 9999 SCT026 TX24/1908Z TN15/1823Z

Weather observations and forecasts of more than 4000 airports (METAR and TAF reports).

The available stations are represented by yellow and red dots on the map.

Hover mouse over dot to see the name of the station.

Then click to see weather observations and forecasts.

To change the map : click on the green buttons with a black cross to zoom in, on the green button with a dash to zoom out, or on the green arrows for adjacent maps.


METAR-TAF: